Latest Weather Observations for Centre Island

IDD60801

Issued at 9:01 pm CST Sunday 24 May 2015 (issued every 30 minutes, with the page automatically refreshed every 10 minutes)

About weather observations | Map of weather stations | Latest weather observations for NT | Other Formats
Station Details ID: 014703 Name: CENTRE ISLAND Lat: -15.74 Lon: 136.82 Height: 12.2 m
Data from the previous 72 hours. | See also: Recent months at Centre Island
Date/Time
CST
Temp
°C
App
Temp
°C
Dew
Point
Rel
Hum
%
Delta-T
°C
Wind Press
QNH
hPa
Press
MSL
hPa
Rain
since 9 am
mm
Dir
 
Spd
km/h
Gust
km/h
Spd
kts
Gust
kts
24/09:00pm 22.8 23.8 19.4 81 2.2 NE 13 19 7 10 1017.3 1017.3 0.0
24/08:30pm 22.8 22.9 19.2 80 2.3 ENE 17 20 9 11 1016.7 1016.7 0.0
24/08:00pm 22.8 22.9 18.3 76 2.8 ENE 15 19 8 10 1016.6 1016.6 0.0
24/07:30pm 22.9 22.7 17.6 72 3.3 ENE 15 17 8 9 1016.2 1016.2 0.0
24/07:00pm 23.2 22.9 17.4 70 3.6 ENE 15 19 8 10 1015.9 1015.9 0.0
24/06:30pm 23.7 22.6 17.4 68 3.9 ENE 19 22 10 12 1015.6 1015.6 0.0
24/06:00pm 24.3 23.9 16.3 61 4.9 ENE 13 20 7 11 1015.3 1015.3 0.0
24/05:30pm 25.4 25.8 17.3 61 5.0 ENE 11 15 6 8 1015.2 1015.2 0.0
24/05:00pm 26.5 25.8 15.5 50 6.7 E 13 15 7 8 1015.0 1015.0 0.0
24/04:30pm 27.0 26.3 16.3 52 6.6 ENE 15 17 8 9 1014.8 1014.8 0.0
24/04:00pm 27.1 26.8 16.4 52 6.6 E 13 17 7 9 1014.6 1014.6 0.0
24/03:30pm 26.4 26.3 16.9 56 5.9 ESE 13 15 7 8 1014.8 1014.8 0.0
24/03:00pm 26.8 26.5 16.4 53 6.4 E 13 17 7 9 1014.8 1014.8 0.0
24/02:30pm 26.6 24.9 14.7 48 7.1 ESE 17 19 9 10 1014.8 1014.8 0.0
24/02:00pm 26.1 23.1 12.5 42 7.9 ESE 20 22 11 12 1015.0 1015.0 0.0
24/01:30pm 26.1 23.1 12.5 42 7.9 ESE 20 24 11 13 1015.2 1015.2 0.0
24/01:00pm 26.4 22.5 12.1 41 8.2 ESE 24 26 13 14 1015.8 1015.8 0.0
24/12:30pm 26.2 22.6 11.9 41 8.2 ESE 22 26 12 14 1016.2 1016.2 0.0
24/12:00pm 25.1 20.6 11.3 42 7.8 ESE 26 30 14 16 1016.6 1016.6 0.0
24/11:30am 25.1 21.4 11.6 42 7.6 SE 22 28 12 15 1016.9 1016.9 0.0
24/11:00am 24.2 19.7 10.1 41 7.8 SE 24 30 13 16 1017.3 1017.3 0.0
24/10:30am 23.6 18.4 8.8 39 7.9 SE 26 32 14 17 1017.4 1017.4 0.0
24/10:00am 23.0 17.4 7.1 36 8.2 SE 26 33 14 18 1017.5 1017.5 0.0
24/09:30am 22.5 18.1 7.5 38 7.8 SE 20 26 11 14 1017.7 1017.7 0.0
24/09:00am 21.5 16.8 6.2 37 7.7 SSE 20 24 11 13 1017.6 1017.6 0.0
24/08:30am 20.8 16.2 6.7 40 7.1 SSE 20 26 11 14 1017.5 1017.5 0.0
24/08:00am 20.4 15.0 6.4 40 7.0 SSE 24 28 13 15 1017.2 1017.2 0.0
24/07:30am 20.2 15.8 7.6 44 6.5 S 20 24 11 13 1017.1 1017.1 0.0
24/07:00am 20.4 15.6 8.7 47 6.1 SSE 24 26 13 14 1016.6 1016.6 0.0
24/06:30am 20.0 15.7 9.3 50 5.7 SSE 22 28 12 15 1016.2 1016.2 0.0
24/06:00am 19.9 15.6 9.5 51 5.5 SSE 22 28 12 15 1016.2 1016.2 0.0
24/05:30am 20.1 15.7 9.1 49 5.8 SSE 22 26 12 14 1016.1 1016.1 0.0
24/05:00am 20.6 15.4 8.9 47 6.2 SSE 26 32 14 17 1015.9 1015.9 0.0
24/04:30am 20.4 15.9 9.9 51 5.6 SSE 24 30 13 16 1015.8 1015.8 0.0
24/04:00am 20.5 15.9 9.7 50 5.8 SSE 24 30 13 16 1015.8 1015.8 0.0
24/03:30am 21.0 16.4 8.3 44 6.6 SSE 22 28 12 15 1015.9 1015.9 0.0
24/03:00am 21.1 16.3 8.7 45 6.5 SSE 24 28 13 15 1016.1 1016.1 0.0
24/02:30am 21.6 17.6 10.4 49 6.1 S 22 26 12 14 1016.2 1016.2 0.0
24/02:00am 21.4 18.4 13.8 62 4.4 SSE 22 26 12 14 1016.4 1016.4 0.0
24/01:30am 21.1 18.8 15.6 71 3.3 SSE 22 24 12 13 1016.4 1016.4 0.0
24/01:00am 21.3 19.9 16.5 74 2.9 SSE 19 22 10 12 1016.7 1016.7 0.0
24/12:30am 21.5 20.2 16.7 74 2.9 SSE 19 20 10 11 1016.7 1016.7 0.0
24/12:00am 21.8 20.8 16.5 72 3.2 SSE 17 20 9 11 1016.8 1016.8 0.0
 
Date/Time
CST
Temp
°C
App
Temp
°C
Dew
Point
Rel
Hum
%
Delta-T
°C
Wind Press
QNH
hPa
Press
MSL
hPa
Rain
since 9 am
mm
Dir
 
Spd
km/h
Gust
km/h
Spd
kts
Gust
kts
23/11:30pm 22.3 20.8 16.8 71 3.4 SSE 20 22 11 12 1016.8 1016.8 0.0
23/11:00pm 23.1 21.1 16.4 66 4.1 ESE 22 26 12 14 1017.0 1017.0 0.0
23/10:30pm 23.1 20.8 15.7 63 4.4 ESE 22 26 12 14 1016.9 1016.9 0.0
23/10:00pm 23.0 21.2 15.6 63 4.4 ESE 19 22 10 12 1016.9 1016.9 0.0
23/09:30pm 22.9 21.6 14.7 60 4.8 E 15 19 8 10 1016.8 1016.8 0.0
23/09:00pm 22.8 20.9 14.1 58 5.1 E 17 20 9 11 1016.9 1016.9 0.0
23/08:30pm 23.0 20.7 14.0 57 5.3 E 19 24 10 13 1016.7 1016.7 0.0
23/08:00pm 23.1 20.6 14.1 57 5.3 E 20 26 11 14 1016.6 1016.6 0.0
23/07:30pm 23.3 19.9 13.8 55 5.5 E 24 28 13 15 1016.3 1016.3 0.0
23/07:00pm 23.5 20.2 13.9 55 5.6 E 24 28 13 15 1016.1 1016.1 0.0
23/06:30pm 23.5 20.3 13.1 52 6.0 ENE 22 28 12 15 1015.7 1015.7 0.0
23/06:00pm 23.8 20.4 12.4 48 6.5 ENE 22 26 12 14 1015.4 1015.4 0.0
23/05:30pm 24.4 22.2 14.8 55 5.7 NE 20 26 11 14 1015.1 1015.1 0.0
23/05:00pm 25.6 23.9 13.5 47 7.1 NE 15 20 8 11 1014.6 1014.6 0.0
23/04:30pm 26.8 25.0 7.8 30 10.2 NE 7 9 4 5 1014.3 1014.3 0.0
23/04:00pm 26.5 24.3 6.0 27 10.6 NE 7 11 4 6 1014.2 1014.2 0.0
23/03:30pm 26.3 24.2 8.3 32 9.7 NE 9 11 5 6 1014.3 1014.3 0.0
23/03:00pm 26.2 24.2 7.3 30 10.0 E 7 9 4 5 1014.5 1014.5 0.0
23/02:30pm 25.5 22.9 4.0 25 10.7 ESE 7 9 4 5 1014.9 1014.9 0.0
23/02:00pm 25.4 23.2 6.1 29 10.0 E 7 11 4 6 1015.4 1015.4 0.0
23/01:30pm 26.1 23.7 7.2 30 10.0 ESE 9 11 5 6 1015.9 1015.9 0.0
23/01:00pm 25.6 22.9 7.2 31 9.7 ESE 11 17 6 9 1016.5 1016.5 0.0
23/12:30pm 25.8 22.8 7.9 32 9.5 SE 13 19 7 10 1017.1 1017.1 0.0
23/12:00pm 24.9 20.5 4.6 27 10.1 SSE 17 20 9 11 1017.4 1017.4 0.0
23/11:30am 24.4 20.0 4.7 28 9.8 SSE 17 22 9 12 1017.9 1017.9 0.0
23/11:00am 24.1 18.9 5.5 30 9.4 SSE 22 30 12 16 1018.5 1018.5 0.0
23/10:30am 23.9 18.3 5.3 30 9.3 SSE 24 30 13 16 1018.8 1018.8 0.0
23/10:00am 22.8 16.8 5.3 32 8.8 SSE 26 33 14 18 1019.0 1019.0 0.0
23/09:30am 22.2 15.5 5.6 34 8.3 SE 30 37 16 20 1019.2 1019.2 0.0
23/09:00am 22.2 16.2 7.2 38 7.7 SSE 28 33 15 18 1019.3 1019.3 -
23/08:30am 21.1 14.0 5.5 36 7.7 SE 32 39 17 21 1019.0 1019.0 -
23/08:00am 21.0 14.0 6.2 38 7.4 SSE 32 39 17 21 1018.8 1018.8 -
23/07:30am 20.8 14.5 7.4 42 6.9 SSE 30 37 16 20 1018.5 1018.5 -
23/07:00am 20.5 14.5 8.5 46 6.3 SSE 30 35 16 19 1018.3 1018.3 -
23/06:30am 20.2 14.1 8.2 46 6.2 SSE 30 35 16 19 1018.1 1018.1 -
23/06:00am 20.5 14.7 9.4 49 5.9 SSE 30 35 16 19 1017.9 1017.9 -
23/05:30am 20.9 15.0 8.9 46 6.3 SSE 30 35 16 19 1017.7 1017.7 -
23/05:00am 21.0 15.2 9.6 48 6.1 SSE 30 35 16 19 1017.5 1017.5 -
23/04:30am 21.3 16.1 10.2 49 6.0 SSE 28 33 15 18 1017.3 1017.3 -
23/04:00am 21.6 15.4 9.5 46 6.5 SE 32 35 17 19 1017.4 1017.4 -
23/03:30am 22.1 15.4 9.6 45 6.7 SE 35 43 19 23 1017.3 1017.3 -
23/03:00am 22.3 15.5 10.8 48 6.3 SE 37 46 20 25 1017.3 1017.3 0.0
23/02:30am 22.6 15.4 10.4 46 6.7 SE 39 46 21 25 1017.4 1017.4 -
23/02:00am 22.9 15.0 9.3 42 7.3 SE 41 50 22 27 1017.4 1017.4 -
23/01:30am 23.0 16.4 11.4 48 6.5 SE 37 43 20 23 1017.5 1017.5 -
23/01:00am 23.1 17.4 13.0 53 5.8 SE 35 41 19 22 1017.6 1017.6 -
23/12:30am 23.3 17.9 13.8 55 5.5 SE 35 43 19 23 1017.7 1017.7 -
23/12:00am 23.6 19.7 15.4 60 4.9 SE 30 33 16 18 1017.8 1017.8 -
 
Date/Time
CST
Temp
°C
App
Temp
°C
Dew
Point
Rel
Hum
%
Delta-T
°C
Wind Press
QNH
hPa
Press
MSL
hPa
Rain
since 9 am
mm
Dir
 
Spd
km/h
Gust
km/h
Spd
kts
Gust
kts
22/11:30pm 23.5 20.9 16.8 66 4.1 SE 26 30 14 16 1017.9 1017.9 -
22/11:00pm 23.5 21.1 16.5 65 4.3 SE 24 26 13 14 1018.1 1018.1 -
22/10:30pm 23.8 20.8 16.8 65 4.3 SE 28 32 15 17 1018.1 1018.1 -
22/10:00pm 23.9 21.8 18.1 70 3.6 SE 26 33 14 18 1018.1 1018.1 -
22/09:30pm 24.1 21.9 18.7 72 3.4 SE 28 37 15 20 1018.1 1018.1 -
22/09:00pm 24.3 21.1 18.2 68 3.8 ESE 32 35 17 19 1017.9 1017.9 -
22/08:30pm 24.3 22.3 18.2 68 3.8 ESE 26 33 14 18 1017.6 1017.6 -
22/08:00pm 24.2 22.2 17.4 65 4.2 ESE 24 28 13 15 1017.4 1017.4 -
22/07:30pm 24.0 23.2 17.0 65 4.3 ESE 17 22 9 12 1017.1 1017.1 -
22/07:00pm 24.0 22.5 16.8 64 4.4 E 20 24 11 13 1016.7 1016.7 -
22/06:30pm 24.1 22.1 16.4 62 4.7 E 22 28 12 15 1016.3 1016.3 -
22/06:00pm 24.3 22.2 16.3 61 4.9 E 22 28 12 15 1016.1 1016.1 -
22/05:30pm 25.0 23.2 15.9 57 5.5 E 20 24 11 13 1016.1 1016.1 -
22/04:00pm 26.9 24.6 15.6 50 6.9 ENE 22 28 12 15 1015.4 1015.4 0.0
22/03:30pm 27.2 24.7 15.2 47 7.3 E 22 28 12 15 1015.4 1015.4 0.0
22/03:00pm 27.7 24.9 15.4 47 7.5 E 24 30 13 16 1015.6 1015.6 0.0
22/02:30pm 27.5 25.4 15.2 47 7.5 E 20 28 11 15 1015.9 1015.9 0.0
22/02:00pm 27.9 25.0 15.2 46 7.7 E 24 30 13 16 1016.3 1016.3 0.0
22/01:30pm 28.2 25.8 14.4 42 8.3 E 20 26 11 14 1016.6 1016.6 0.0
22/01:00pm 28.1 26.1 15.4 46 7.8 E 20 28 11 15 1017.0 1017.0 0.0
22/12:30pm 27.8 24.4 14.8 45 7.8 E 26 32 14 17 1017.4 1017.4 0.0
22/12:00pm 27.5 23.5 14.2 44 7.9 ESE 28 33 15 18 1017.7 1017.7 0.0
22/11:30am 26.8 22.1 13.2 43 8.0 ESE 30 37 16 20 1018.2 1018.2 0.0
22/11:00am 26.8 22.1 14.2 46 7.5 ESE 32 37 17 20 1018.6 1018.6 0.0
22/10:30am 26.0 22.9 13.5 46 7.3 ESE 22 28 12 15 1018.9 1018.9 0.0
22/10:00am 25.8 23.0 12.6 44 7.6 SE 19 22 10 12 1019.2 1019.2 0.0
22/09:30am 25.2 22.3 12.4 45 7.3 SE 19 24 10 13 1019.4 1019.4 0.0
22/09:00am 24.8 22.2 13.7 50 6.5 SE 20 26 11 14 1019.3 1019.3 0.0
22/08:30am 24.3 21.0 12.9 49 6.6 SSE 22 30 12 16 1019.1 1019.1 0.0
22/08:00am 23.8 20.4 12.4 48 6.5 SSE 22 26 12 14 1018.9 1018.9 0.0
22/07:30am 23.4 19.4 13.0 52 6.0 SSE 26 32 14 17 1018.7 1018.7 0.0
22/07:00am 23.2 19.2 13.1 53 5.8 SSE 26 30 14 16 1018.3 1018.3 0.0
22/06:30am 23.3 19.5 13.5 54 5.7 SSE 26 32 14 17 1017.9 1017.9 0.0
22/06:00am 23.5 19.3 13.4 53 5.9 S 28 33 15 18 1017.6 1017.6 0.0
22/05:30am 23.9 19.3 13.4 51 6.1 S 30 35 16 19 1017.2 1017.2 0.0
22/05:00am 24.1 19.0 13.0 50 6.4 S 32 41 17 22 1017.0 1017.0 0.0
22/04:30am 24.1 19.3 14.5 55 5.7 SSE 33 39 18 21 1016.8 1016.8 0.0
22/04:00am 24.0 19.8 15.8 60 5.0 SSE 32 37 17 20 1016.7 1016.7 0.0
22/03:30am 24.3 20.3 16.3 61 4.9 SSE 32 37 17 20 1016.5 1016.5 0.0
22/03:00am 24.4 21.9 18.1 68 4.0 SSE 28 33 15 18 1016.6 1016.6 0.0
22/02:30am 24.6 23.8 20.1 76 2.9 SSE 24 30 13 16 1016.7 1016.7 0.0
22/02:00am 24.4 24.3 20.7 80 2.4 SSE 22 24 12 13 1016.7 1016.7 0.0
22/01:30am 24.2 23.6 21.3 84 1.9 S 26 30 14 16 1017.0 1017.0 0.0
22/01:00am 24.3 25.7 22.6 90 1.1 SSE 19 28 10 15 1017.1 1017.1 0.0
22/12:30am 24.1 27.4 22.5 91 1.1 SSE 9 11 5 6 1016.8 1016.8 0.0
22/12:00am 24.1 27.9 22.4 90 1.1 S 6 9 3 5 1016.8 1016.8 0.0
 
Date/Time
CST
Temp
°C
App
Temp
°C
Dew
Point
Rel
Hum
%
Delta-T
°C
Wind Press
QNH
hPa
Press
MSL
hPa
Rain
since 9 am
mm
Dir
 
Spd
km/h
Gust
km/h
Spd
kts
Gust
kts
21/11:30pm 24.3 27.3 22.6 90 1.1 SSE 11 13 6 7 1016.9 1016.9 0.0
21/11:00pm 24.5 26.5 22.9 91 1.1 SE 17 19 9 10 1017.1 1017.1 0.0
21/10:30pm 24.5 27.1 23.3 93 0.8 SE 15 17 8 9 1017.1 1017.1 0.0
21/10:00pm 24.3 26.6 22.7 91 1.1 ESE 15 17 8 9 1016.8 1016.8 0.0
21/09:30pm 24.2 27.7 22.8 92 0.9 ESE 9 11 5 6 1016.6 1016.6 0.0

Other Formats:

Comma delimited format used in spreadsheet applications
http://www.bom.gov.au/fwo/IDD60801/IDD60801.94248.axf

JavaScript Object Notation format (JSON) in row-major order
http://www.bom.gov.au/fwo/IDD60801/IDD60801.94248.json